Seneimaru — JG5357 — position and weather

sailwx.info

Track history (hours):
 
Tides and Currents Weather Stations Pressure Air Temp Water Temp Dewpoint Dewpoint Depression Visibility Wind Speed Wind Dir Waves Ship Positions

Seneimaru

Last reported at 2016-Sep-28 02:27 UTC. Time now 2016-Sep-29 11:53 UTC.
Position N 35°01' E 139°43'.

Length 72 m; draft 5.9 m.

Type: Cargo ship. MMSI: 431100477.

Date/timePositionNaut miles runAvg speedWind from/ knotsBaromVisibWave heightAir tempDewpointWater temp
2016-Sep-28 02:27N 35°01' E 139°43'1010.8
2016-Sep-28 01:33N 35°10' E 139°46'19 9.6
2016-Sep-27 23:33N 35°29' E 139°48'4 1.0
2016-Sep-27 19:33N 35°30' E 139°43'0 0.0
2016-Sep-27 14:33N 35°30' E 139°43'0 0.0
2016-Sep-27 13:33N 35°30' E 139°43'0 0.0
2016-Sep-27 10:33N 35°30' E 139°43'0 0.0
2016-Sep-27 00:33N 35°30' E 139°43'1 0.3
2016-Sep-26 20:33N 35°29' E 139°42'6 5.6
2016-Sep-26 19:33N 35°24' E 139°44'0 0.0
2016-Sep-26 15:32N 35°24' E 139°44'9 4.3
2016-Sep-26 13:33N 35°15' E 139°47'20 0.6
2016-Sep-25 04:11N 34°56' E 139°45'34 9.4
2016-Sep-25 00:34N 35°30' E 139°43'1 0.4
2016-Sep-24 22:33N 35°30' E 139°43'0 0.0
2016-Sep-24 21:33N 35°30' E 139°43'1 0.7
2016-Sep-24 19:33N 35°29' E 139°42'7 6.5
2016-Sep-24 18:32N 35°22' E 139°44'0 0.0
2016-Sep-24 17:32N 35°22' E 139°44'0 0.0
2016-Sep-24 16:32N 35°22' E 139°44'2 1.1
2016-Sep-24 14:33N 35°20' E 139°43'2411.4
2016-Sep-24 12:29N 34°57' E 139°44'6 0.2
2016-Sep-23 06:08N 34°51' E 139°47'1711.0
2016-Sep-23 04:33N 35°09' E 139°45'1110.9
2016-Sep-23 03:33N 35°19' E 139°43'1110.6
2016-Sep-23 02:33N 35°29' E 139°48'4 3.9
2016-Sep-23 01:33N 35°30' E 139°43'0 0.0
2016-Sep-23 00:33N 35°30' E 139°43'0 0.0
2016-Sep-22 23:33N 35°30' E 139°43'0 0.0
2016-Sep-22 20:33N 35°30' E 139°43'9 1.1
2016-Sep-22 12:33N 35°21' E 139°43'9 0.2
2016-Sep-20 17:33N 35°30' E 139°43'0 0.0
2016-Sep-20 14:33N 35°30' E 139°43'0 0.0
2016-Sep-20 13:33N 35°30' E 139°43'0 0.0
2016-Sep-20 10:33N 35°30' E 139°43'0 0.0
2016-Sep-20 08:33N 35°30' E 139°43'0 0.0
2016-Sep-20 07:33N 35°30' E 139°43'0 0.0
2016-Sep-20 06:33N 35°30' E 139°43'0 0.0
2016-Sep-20 02:33N 35°30' E 139°43'0 0.0
2016-Sep-19 23:33N 35°30' E 139°43'0 0.0
2016-Sep-19 19:33N 35°30' E 139°43'0 0.0
2016-Sep-19 18:33N 35°30' E 139°43'0 0.0
2016-Sep-19 16:33N 35°30' E 139°43'0 0.0
2016-Sep-19 14:33N 35°30' E 139°43'0 0.0
2016-Sep-19 13:33N 35°30' E 139°43'0 0.0
2016-Sep-19 12:33N 35°30' E 139°43'0 0.0
2016-Sep-19 11:33N 35°30' E 139°43'0 0.0
2016-Sep-19 09:33N 35°30' E 139°43'0 0.0
2016-Sep-19 07:33N 35°30' E 139°43'0 0.0
2016-Sep-19 06:33N 35°30' E 139°43'0 0.0
2016-Sep-19 03:33N 35°30' E 139°43'0 0.0
2016-Sep-19 02:33N 35°30' E 139°43'0 0.0
2016-Sep-19 00:33N 35°30' E 139°43'7 1.4
2016-Sep-18 19:26N 35°23' E 139°44'3 0.8
2016-Sep-18 15:33N 35°20' E 139°43'1111.3
2016-Sep-18 14:34N 35°09' E 139°46'  
Track history (hours):
 
Tides and Currents Weather Stations Pressure Air Temp Water Temp Dewpoint Dewpoint Depression Visibility Wind Speed Wind Dir Waves Ship Positions

Seneimaru

Last reported at 2016-Sep-28 02:27 UTC. Time now 2016-Sep-29 11:53 UTC.
Position N 35°01' E 139°43'.

Length 72 m; draft 5.9 m.

Type: Cargo ship. MMSI: 431100477.

Date/timePositionNaut miles runAvg speedWind from/ knotsBaromVisibWave heightAir tempDewpointWater temp
2016-Sep-28 02:27N 35°01' E 139°43'1010.8
2016-Sep-28 01:33N 35°10' E 139°46'19 9.6
2016-Sep-27 23:33N 35°29' E 139°48'4 1.0
2016-Sep-27 19:33N 35°30' E 139°43'0 0.0
2016-Sep-27 14:33N 35°30' E 139°43'0 0.0
2016-Sep-27 13:33N 35°30' E 139°43'0 0.0
2016-Sep-27 10:33N 35°30' E 139°43'0 0.0
2016-Sep-27 00:33N 35°30' E 139°43'1 0.3
2016-Sep-26 20:33N 35°29' E 139°42'6 5.6
2016-Sep-26 19:33N 35°24' E 139°44'0 0.0
2016-Sep-26 15:32N 35°24' E 139°44'9 4.3
2016-Sep-26 13:33N 35°15' E 139°47'20 0.6
2016-Sep-25 04:11N 34°56' E 139°45'34 9.4
2016-Sep-25 00:34N 35°30' E 139°43'1 0.4
2016-Sep-24 22:33N 35°30' E 139°43'0 0.0
2016-Sep-24 21:33N 35°30' E 139°43'1 0.7
2016-Sep-24 19:33N 35°29' E 139°42'7 6.5
2016-Sep-24 18:32N 35°22' E 139°44'0 0.0
2016-Sep-24 17:32N 35°22' E 139°44'0 0.0
2016-Sep-24 16:32N 35°22' E 139°44'2 1.1
2016-Sep-24 14:33N 35°20' E 139°43'2411.4
2016-Sep-24 12:29N 34°57' E 139°44'6 0.2
2016-Sep-23 06:08N 34°51' E 139°47'1711.0
2016-Sep-23 04:33N 35°09' E 139°45'1110.9
2016-Sep-23 03:33N 35°19' E 139°43'1110.6
2016-Sep-23 02:33N 35°29' E 139°48'4 3.9
2016-Sep-23 01:33N 35°30' E 139°43'0 0.0
2016-Sep-23 00:33N 35°30' E 139°43'0 0.0
2016-Sep-22 23:33N 35°30' E 139°43'0 0.0
2016-Sep-22 20:33N 35°30' E 139°43'9 1.1
2016-Sep-22 12:33N 35°21' E 139°43'9 0.2
2016-Sep-20 17:33N 35°30' E 139°43'0 0.0
2016-Sep-20 14:33N 35°30' E 139°43'0 0.0
2016-Sep-20 13:33N 35°30' E 139°43'0 0.0
2016-Sep-20 10:33N 35°30' E 139°43'0 0.0
2016-Sep-20 08:33N 35°30' E 139°43'0 0.0
2016-Sep-20 07:33N 35°30' E 139°43'0 0.0
2016-Sep-20 06:33N 35°30' E 139°43'0 0.0
2016-Sep-20 02:33N 35°30' E 139°43'0 0.0
2016-Sep-19 23:33N 35°30' E 139°43'0 0.0
2016-Sep-19 19:33N 35°30' E 139°43'0 0.0
2016-Sep-19 18:33N 35°30' E 139°43'0 0.0
2016-Sep-19 16:33N 35°30' E 139°43'0 0.0
2016-Sep-19 14:33N 35°30' E 139°43'0 0.0
2016-Sep-19 13:33N 35°30' E 139°43'0 0.0
2016-Sep-19 12:33N 35°30' E 139°43'0 0.0
2016-Sep-19 11:33N 35°30' E 139°43'0 0.0
2016-Sep-19 09:33N 35°30' E 139°43'0 0.0
2016-Sep-19 07:33N 35°30' E 139°43'0 0.0
2016-Sep-19 06:33N 35°30' E 139°43'0 0.0
2016-Sep-19 03:33N 35°30' E 139°43'0 0.0
2016-Sep-19 02:33N 35°30' E 139°43'0 0.0
2016-Sep-19 00:33N 35°30' E 139°43'7 1.4
2016-Sep-18 19:26N 35°23' E 139°44'3 0.8
2016-Sep-18 15:33N 35°20' E 139°43'1111.3
2016-Sep-18 14:34N 35°09' E 139°46'  

Dump ship's entire track history